Time;durP1;ratioP1;P1;durP2;ratioP2;P2;SDS_P1;SDS_P2;PMS_P1;PMS_P2;Temp;Humidity;BMP_temperature;BMP_pressure;BME280_temperature;BME280_humidity;BME280_pressure;Samples;Min_cycle;Max_cycle;Signal;HPM_P1;HPM_P2
2021/10/06 00:00:19;;;;;;;0.30;0.30;;;;;;;6.92;65.03;102206.28;5013032;28;20063;-67
2021/10/06 00:02:44;;;;;;;0.40;0.40;;;;;;;6.93;65.07;102210.72;5013153;28;20045;-66
2021/10/06 00:05:10;;;;;;;0.40;0.40;;;;;;;6.90;64.87;102210.84;5031042;28;20045;-66
2021/10/06 00:07:36;;;;;;;0.32;0.32;;;;;;;6.96;65.18;102213.28;5031289;28;20068;-68
2021/10/06 00:10:04;;;;;;;0.30;0.30;;;;;;;6.93;65.43;102216.09;5013603;28;20056;-67
2021/10/06 00:12:30;;;;;;;0.40;0.40;;;;;;;6.86;65.16;102209.22;5013279;28;20486;-67
2021/10/06 00:14:56;;;;;;;0.40;0.40;;;;;;;6.90;64.46;102218.91;5029941;28;20045;-67
2021/10/06 00:17:23;;;;;;;0.30;0.30;;;;;;;6.83;65.13;102203.97;5029638;28;20102;-67
2021/10/06 00:19:49;;;;;;;0.40;0.40;;;;;;;6.83;65.33;102211.19;5013325;28;20481;-67
2021/10/06 00:22:15;;;;;;;0.30;0.30;;;;;;;6.77;65.43;102215.00;5029269;28;20057;-67
2021/10/06 00:24:40;;;;;;;0.32;0.32;;;;;;;6.75;65.48;102216.88;5013427;28;20085;-67
2021/10/06 00:27:06;;;;;;;0.30;0.30;;;;;;;6.76;65.46;102213.25;5029339;28;20107;-68
2021/10/06 00:29:32;;;;;;;0.30;0.30;;;;;;;6.78;65.38;102215.88;5012922;28;20053;-66
2021/10/06 00:31:58;;;;;;;0.30;0.30;;;;;;;6.74;65.32;102220.50;5012822;28;20073;-67
2021/10/06 00:34:23;;;;;;;0.40;0.40;;;;;;;6.71;65.15;102217.94;5030376;28;20079;-66
2021/10/06 00:36:49;;;;;;;0.40;0.40;;;;;;;6.66;65.63;102214.59;5029476;28;20046;-66
2021/10/06 00:39:15;;;;;;;0.40;0.40;;;;;;;6.70;65.42;102208.13;5013491;28;20056;-67
2021/10/06 00:41:41;;;;;;;0.40;0.40;;;;;;;6.70;65.44;102213.50;5016517;28;20399;-66
2021/10/06 00:44:14;;;;;;;0.40;0.40;;;;;;;6.67;65.62;102208.25;5034541;28;20103;-67
2021/10/06 00:46:39;;;;;;;0.38;0.38;;;;;;;6.71;65.48;102209.88;5017104;28;20131;-67
2021/10/06 00:49:05;;;;;;;0.40;0.40;;;;;;;6.70;66.08;102213.50;5034127;28;20053;-66
2021/10/06 00:51:31;;;;;;;0.40;0.40;;;;;;;6.60;65.55;102212.13;5033120;28;20397;-65
2021/10/06 00:54:01;;;;;;;0.40;0.40;;;;;;;6.60;66.70;102215.69;5000399;28;20107;-67
2021/10/06 00:56:27;;;;;;;0.40;0.40;;;;;;;6.67;66.64;102213.63;5016657;28;20128;-66
2021/10/06 00:58:53;;;;;;;0.30;0.30;;;;;;;6.63;66.67;102209.31;5033039;28;20188;-66
2021/10/06 01:01:19;;;;;;;0.40;0.40;;;;;;;6.57;66.40;102212.25;5032904;28;20068;-67
2021/10/06 01:03:44;;;;;;;0.40;0.40;;;;;;;6.58;66.93;102214.91;5034465;28;20080;-66
2021/10/06 01:06:10;;;;;;;0.30;0.30;;;;;;;6.56;67.02;102205.13;5034189;28;20449;-66
2021/10/06 01:08:36;;;;;;;0.30;0.30;;;;;;;6.64;66.76;102213.75;5034077;28;20061;-67
2021/10/06 01:11:02;;;;;;;0.40;0.40;;;;;;;6.65;67.10;102210.13;5033381;28;20114;-66
2021/10/06 01:13:28;;;;;;;0.40;0.40;;;;;;;6.67;66.61;102210.94;5034729;28;20126;-66
2021/10/06 01:15:54;;;;;;;0.40;0.40;;;;;;;6.67;66.65;102208.25;5034075;28;20493;-67
2021/10/06 01:18:20;;;;;;;0.40;0.40;;;;;;;6.68;66.56;102220.75;5049594;28;20065;-66
2021/10/06 01:20:45;;;;;;;0.30;0.30;;;;;;;6.62;66.64;102215.63;5016087;28;20045;-66
2021/10/06 01:23:16;;;;;;;0.35;0.35;;;;;;;6.60;66.33;102222.88;5033941;28;20485;-67
2021/10/06 01:25:42;;;;;;;0.30;0.30;;;;;;;6.51;66.15;102225.00;5016337;28;20189;-66
2021/10/06 01:28:08;;;;;;;0.40;0.40;;;;;;;6.52;66.74;102221.38;5033548;28;20485;-66
2021/10/06 01:30:35;;;;;;;0.40;0.40;;;;;;;6.53;66.76;102217.75;5033898;28;20045;-66
2021/10/06 01:33:00;;;;;;;0.30;0.30;;;;;;;6.60;66.98;102225.56;5033536;28;20551;-65
2021/10/06 01:35:26;;;;;;;0.30;0.30;;;;;;;6.61;66.53;102217.44;5015638;28;20058;-66
2021/10/06 01:37:52;;;;;;;0.30;0.30;;;;;;;6.57;66.23;102223.00;5033541;28;20049;-66
2021/10/06 01:40:22;;;;;;;0.40;0.40;;;;;;;6.49;66.86;102226.88;5033308;28;20053;-66
2021/10/06 01:42:48;;;;;;;0.40;0.40;;;;;;;6.56;66.75;102215.88;5048687;28;20057;-66
2021/10/06 01:45:22;;;;;;;0.30;0.30;;;;;;;6.46;67.04;102227.00;5015690;28;20078;-67
2021/10/06 01:47:48;;;;;;;0.40;0.40;;;;;;;6.39;66.71;102225.47;5033208;28;20095;-66
2021/10/06 01:50:22;;;;;;;0.30;0.30;;;;;;;6.41;66.62;102231.69;5031856;28;20097;-67
2021/10/06 01:52:48;;;;;;;0.30;0.30;;;;;;;6.40;66.35;102235.31;5015074;28;20091;-65
2021/10/06 01:55:14;;;;;;;0.30;0.30;;;;;;;6.39;65.68;102240.72;5048756;28;20041;-67
2021/10/06 01:57:40;;;;;;;0.40;0.40;;;;;;;6.34;66.60;102227.50;5033094;28;20517;-70
2021/10/06 02:00:06;;;;;;;0.30;0.30;;;;;;;6.31;67.11;102232.09;5016121;28;20489;-67
2021/10/06 02:02:36;;;;;;;0.40;0.40;;;;;;;6.39;66.71;102235.38;5016817;28;20133;-67
2021/10/06 02:05:03;;;;;;;0.40;0.40;;;;;;;6.42;67.24;102241.50;5017140;28;20560;-67
2021/10/06 02:07:29;;;;;;;0.30;0.30;;;;;;;6.42;66.81;102241.50;5033635;28;20057;-66
2021/10/06 02:09:54;;;;;;;0.30;0.30;;;;;;;6.40;67.16;102235.31;5035384;28;20143;-67
2021/10/06 02:12:20;;;;;;;0.40;0.40;;;;;;;6.40;67.47;102243.38;5035445;28;20066;-66
2021/10/06 02:14:46;;;;;;;0.40;0.40;;;;;;;6.27;67.50;102247.47;5033473;28;20267;-66
2021/10/06 02:17:11;;;;;;;0.40;0.40;;;;;;;6.27;67.07;102244.78;5031849;28;20083;-67
2021/10/06 02:19:37;;;;;;;0.40;0.40;;;;;;;6.18;67.51;102247.81;5033339;28;20519;-67
2021/10/06 02:22:03;;;;;;;0.40;0.40;;;;;;;6.18;67.45;102253.19;5032927;28;20045;-69
2021/10/06 02:24:29;;;;;;;0.30;0.30;;;;;;;6.10;68.10;102245.41;5014815;28;20053;-66
2021/10/06 02:26:54;;;;;;;0.40;0.40;;;;;;;6.12;67.49;102261.50;5014877;28;20144;-67
2021/10/06 02:29:20;;;;;;;0.40;0.40;;;;;;;6.10;67.82;102249.91;5032749;28;20103;-67
2021/10/06 02:31:46;;;;;;;0.40;0.40;;;;;;;6.08;68.12;102262.56;5031020;28;20458;-67
2021/10/06 02:34:11;;;;;;;0.30;0.30;;;;;;;5.99;68.12;102259.25;5030921;28;20069;-67
2021/10/06 02:36:37;;;;;;;0.30;0.30;;;;;;;5.90;68.37;102264.06;5014278;28;20053;-66
2021/10/06 02:39:03;;;;;;;0.30;0.30;;;;;;;5.92;68.65;102267.56;5014157;28;20524;-67
2021/10/06 02:41:29;;;;;;;0.40;0.40;;;;;;;5.92;68.60;102268.47;5031151;28;20053;-66
2021/10/06 02:43:55;;;;;;;0.40;0.40;;;;;;;5.89;68.19;102263.22;5031249;28;20094;-72
2021/10/06 02:46:20;;;;;;;0.40;0.40;;;;;;;5.91;68.57;102266.69;5030857;28;20061;-67
2021/10/06 02:48:46;;;;;;;0.30;0.30;;;;;;;5.94;68.38;102271.97;5014273;28;20062;-67
2021/10/06 02:51:12;;;;;;;0.40;0.40;;;;;;;5.90;68.46;102264.94;5030500;28;20049;-66
2021/10/06 02:53:38;;;;;;;0.40;0.40;;;;;;;5.96;67.92;102270.13;5031679;28;20053;-66
2021/10/06 02:56:04;;;;;;;0.30;0.30;;;;;;;5.93;68.30;102270.25;5030399;28;20053;-67
2021/10/06 02:58:29;;;;;;;0.40;0.40;;;;;;;5.94;68.53;102269.31;5029822;28;20053;-67
2021/10/06 03:00:55;;;;;;;0.40;0.40;;;;;;;5.91;68.26;102272.06;5046604;28;20521;-67
2021/10/06 03:03:21;;;;;;;0.30;0.30;;;;;;;5.91;68.13;102280.13;5030508;28;20606;-67
2021/10/06 03:05:46;;;;;;;0.30;0.30;;;;;;;5.93;68.17;102280.13;5030537;28;20061;-68
2021/10/06 03:08:12;;;;;;;0.32;0.32;;;;;;;5.95;69.22;102284.47;5030654;28;20148;-67
2021/10/06 03:10:38;;;;;;;0.40;0.40;;;;;;;5.96;69.36;102288.94;5014049;28;20497;-68
2021/10/06 03:13:03;;;;;;;0.35;0.35;;;;;;;5.87;68.47;102289.22;5030487;28;20112;-69
2021/10/06 03:15:29;;;;;;;0.40;0.40;;;;;;;5.81;68.56;102284.06;5030225;28;20084;-67
2021/10/06 03:17:55;;;;;;;0.40;0.40;;;;;;;5.82;68.08;102282.28;5013572;28;20061;-66
2021/10/06 03:20:21;;;;;;;0.40;0.40;;;;;;;5.75;68.28;102281.63;5030824;28;20145;-66
2021/10/06 03:22:46;;;;;;;0.40;0.40;;;;;;;5.73;68.43;102288.84;5013484;28;20060;-69
2021/10/06 03:25:12;;;;;;;0.40;0.40;;;;;;;5.66;68.70;102288.19;5031034;28;20148;-68
2021/10/06 03:27:38;;;;;;;0.30;0.30;;;;;;;5.70;68.84;102286.25;5013358;28;20061;-67
2021/10/06 03:30:05;;;;;;;0.30;0.30;;;;;;;5.53;69.05;102287.75;5013136;28;20540;-67
2021/10/06 03:32:31;;;;;;;0.40;0.40;;;;;;;5.55;69.10;102291.25;5013420;28;20045;-66
2021/10/06 03:34:56;;;;;;;0.40;0.40;;;;;;;5.57;69.02;102302.81;5031392;28;20218;-68
2021/10/06 03:37:24;;;;;;;0.40;0.40;;;;;;;5.53;68.68;102295.81;5029659;28;20088;-68
2021/10/06 03:39:49;;;;;;;0.40;0.40;;;;;;;5.59;68.43;102299.19;5013709;28;20049;-68
2021/10/06 03:42:15;;;;;;;0.40;0.40;;;;;;;5.48;68.83;102299.56;5031351;28;20049;-69
2021/10/06 03:44:41;;;;;;;0.40;0.40;;;;;;;5.57;69.99;102293.88;5031652;28;20049;-68
2021/10/06 03:47:06;;;;;;;0.40;0.40;;;;;;;5.57;70.00;102288.53;5031560;28;20486;-68
2021/10/06 03:49:32;;;;;;;0.40;0.40;;;;;;;5.59;69.79;102296.50;5029779;28;20417;-70
2021/10/06 03:52:01;;;;;;;0.40;0.40;;;;;;;5.46;69.48;102305.00;5031107;28;20148;-68
2021/10/06 03:54:26;;;;;;;0.40;0.40;;;;;;;5.52;69.31;102296.75;5012117;28;20052;-68
2021/10/06 03:56:52;;;;;;;0.40;0.40;;;;;;;5.50;69.22;102298.59;5046038;28;20124;-69
2021/10/06 03:59:18;;;;;;;0.40;0.40;;;;;;;5.47;68.70;102293.31;5013074;28;20064;-69
2021/10/06 04:01:44;;;;;;;0.40;0.40;;;;;;;5.45;68.80;102302.38;5012964;28;20045;-68
2021/10/06 04:04:10;;;;;;;0.40;0.40;;;;;;;5.50;68.64;102301.28;4996525;28;20103;-68
2021/10/06 04:06:36;;;;;;;0.40;0.40;;;;;;;5.54;68.34;102302.91;5012867;28;20099;-68
2021/10/06 04:09:02;;;;;;;0.50;0.50;;;;;;;5.49;67.75;102301.34;4996708;28;20058;-70
2021/10/06 04:11:28;;;;;;;0.40;0.40;;;;;;;5.60;67.43;102311.69;5013110;28;20448;-66
2021/10/06 04:13:54;;;;;;;0.40;0.40;;;;;;;5.64;67.30;102310.66;5012497;28;20561;-68
2021/10/06 04:16:20;;;;;;;0.40;0.40;;;;;;;5.54;67.21;102310.97;5029546;28;20547;-68
2021/10/06 04:18:45;;;;;;;0.40;0.40;;;;;;;5.43;67.34;102306.91;5014303;28;20045;-69
2021/10/06 04:21:11;;;;;;;0.40;0.40;;;;;;;5.50;67.59;102303.94;5029353;28;20056;-68
2021/10/06 04:23:37;;;;;;;0.50;0.50;;;;;;;5.60;66.90;102314.38;5013388;28;20490;-68
2021/10/06 04:26:03;;;;;;;0.40;0.40;;;;;;;5.61;66.77;102321.50;5012433;28;20135;-71
2021/10/06 04:28:29;;;;;;;0.40;0.40;;;;;;;5.59;66.70;102320.66;5012719;28;20425;-73
2021/10/06 04:30:54;;;;;;;0.50;0.50;;;;;;;5.46;66.95;102318.41;4996667;28;20181;-71
2021/10/06 04:33:20;;;;;;;0.50;0.50;;;;;;;5.36;67.30;102325.00;5012782;28;20092;-73
2021/10/06 04:35:46;;;;;;;0.40;0.40;;;;;;;5.49;67.48;102323.66;5012539;28;20085;-72
2021/10/06 04:38:12;;;;;;;0.50;0.50;;;;;;;5.57;67.11;102328.78;5029907;28;20085;-72
2021/10/06 04:40:38;;;;;;;0.50;0.50;;;;;;;5.58;67.33;102327.81;5029826;28;20406;-71
2021/10/06 04:43:10;;;;;;;0.40;0.40;;;;;;;5.46;66.77;102328.25;5031155;28;20061;-72
2021/10/06 04:45:36;;;;;;;0.40;0.40;;;;;;;5.30;66.98;102322.53;5012999;28;20053;-72
2021/10/06 04:48:02;;;;;;;0.40;0.40;;;;;;;5.33;67.10;102327.78;4980643;28;20046;-71
2021/10/06 04:50:29;;;;;;;0.40;0.40;;;;;;;5.27;67.27;102328.00;5029225;28;20055;-73
2021/10/06 04:52:55;;;;;;;0.50;0.50;;;;;;;5.23;67.23;102329.03;5013017;28;20065;-71
2021/10/06 04:55:22;;;;;;;0.50;0.50;;;;;;;5.17;67.00;102332.78;5030253;28;20107;-72
2021/10/06 04:57:47;;;;;;;0.50;0.50;;;;;;;5.25;67.03;102341.47;4996094;28;20535;-72
2021/10/06 05:00:13;;;;;;;0.40;0.40;;;;;;;5.24;66.96;102344.19;5012688;28;20050;-73
2021/10/06 05:02:39;;;;;;;0.50;0.50;;;;;;;5.34;66.85;102342.97;5012726;28;20094;-70
2021/10/06 05:05:06;;;;;;;0.50;0.50;;;;;;;5.31;66.01;102345.75;4996775;28;20060;-72
2021/10/06 05:07:32;;;;;;;0.40;0.40;;;;;;;5.34;65.79;102348.34;5013304;28;20073;-73
2021/10/06 05:09:58;;;;;;;0.50;0.50;;;;;;;5.41;65.67;102344.53;5029455;28;20140;-71
2021/10/06 05:12:23;;;;;;;0.60;0.60;;;;;;;5.59;65.07;102345.66;5013007;28;20148;-71
2021/10/06 05:14:50;;;;;;;1.10;1.10;;;;;;;6.52;62.13;102338.75;4996279;28;20103;-71
2021/10/06 05:17:16;;;;;;;1.00;1.00;;;;;;;7.20;59.61;102343.22;5012960;28;20060;-72
2021/10/06 05:19:42;;;;;;;1.00;1.00;;;;;;;7.80;57.79;102347.88;5029729;28;20049;-70
2021/10/06 05:22:08;;;;;;;1.00;1.00;;;;;;;8.17;56.34;102352.47;5014807;28;20053;-71
2021/10/06 05:24:33;;;;;;;0.90;0.90;;;;;;;8.60;55.30;102347.84;5015056;28;20053;-71
2021/10/06 05:26:59;;;;;;;1.00;1.00;;;;;;;9.01;53.36;102355.78;5017233;28;20064;-73
2021/10/06 05:29:25;;;;;;;1.00;1.00;;;;;;;9.73;52.18;102355.75;5017358;28;20579;-72
2021/10/06 05:31:51;;;;;;;0.90;0.90;;;;;;;9.36;52.52;102362.13;5016247;28;20443;-74
2021/10/06 05:34:17;;;;;;;0.90;0.90;;;;;;;10.17;50.54;102355.25;5016047;28;20060;-73
2021/10/06 05:36:42;;;;;;;0.90;0.90;;;;;;;9.84;50.76;102364.16;5033061;28;20537;-73
2021/10/06 05:39:08;;;;;;;0.90;0.90;;;;;;;10.21;50.03;102347.84;5016057;28;20061;-73
2021/10/06 05:41:34;;;;;;;0.93;0.93;;;;;;;10.30;49.35;102359.03;5016371;28;20501;-73
2021/10/06 05:44:00;;;;;;;1.00;1.00;;;;;;;10.05;49.85;102354.03;5016129;28;20057;-71
2021/10/06 05:46:27;;;;;;;0.93;0.93;;;;;;;9.79;50.31;102363.50;4999629;28;20133;-73
2021/10/06 05:48:53;;;;;;;1.00;1.00;;;;;;;10.12;49.67;102352.75;4999628;28;20076;-72
2021/10/06 05:51:19;;;;;;;1.00;1.00;;;;;;;10.31;49.43;102358.13;5015843;28;20204;-71
2021/10/06 05:53:45;;;;;;;0.93;0.93;;;;;;;11.29;47.11;102367.94;4966808;28;20061;-71
2021/10/06 05:56:11;;;;;;;0.90;0.90;;;;;;;11.99;45.11;102358.38;4999130;28;20049;-69
2021/10/06 05:58:38;;;;;;;1.00;1.00;;;;;;;12.35;44.52;102367.03;5015477;28;20053;-72
2021/10/06 06:01:04;;;;;;;0.93;0.93;;;;;;;12.82;42.68;102368.56;5032131;28;20097;-71
2021/10/06 06:03:29;;;;;;;1.00;1.00;;;;;;;12.93;42.26;102371.47;5015424;28;20053;-71
2021/10/06 06:05:55;;;;;;;0.90;0.90;;;;;;;12.13;44.38;102362.94;5015264;28;20060;-71
2021/10/06 06:08:21;;;;;;;1.00;1.00;;;;;;;12.53;43.91;102374.00;5015375;28;20075;-70
2021/10/06 06:10:47;;;;;;;1.00;1.00;;;;;;;11.76;45.15;102367.84;5015651;28;20057;-71
2021/10/06 06:13:12;;;;;;;1.00;1.00;;;;;;;12.02;45.30;102373.56;4999581;28;20057;-73
2021/10/06 06:15:38;;;;;;;1.10;1.10;;;;;;;12.20;44.09;102371.56;5015282;28;20092;-72
2021/10/06 06:18:04;;;;;;;1.00;1.00;;;;;;;12.93;43.10;102377.75;5015269;28;20057;-71
2021/10/06 06:20:30;;;;;;;1.00;1.00;;;;;;;12.45;43.47;102377.22;5033327;28;20053;-72
2021/10/06 06:22:56;;;;;;;1.00;1.00;;;;;;;12.80;42.28;102371.41;5015473;28;20500;-71
2021/10/06 06:25:22;;;;;;;1.10;1.10;;;;;;;13.46;41.29;102386.13;5033365;28;20054;-72
2021/10/06 06:27:48;;;;;;;1.00;1.00;;;;;;;15.08;38.03;102374.69;5014949;28;20123;-72
2021/10/06 06:30:15;;;;;;;1.00;1.00;;;;;;;15.99;36.75;102379.63;5015432;28;20068;-72
2021/10/06 06:32:41;;;;;;;1.00;1.00;;;;;;;16.37;35.59;102387.50;5014913;28;20057;-71
2021/10/06 06:35:09;;;;;;;1.00;1.00;;;;;;;16.31;35.28;102392.59;4981913;28;20152;-74
2021/10/06 06:37:35;;;;;;;1.10;1.10;;;;;;;16.45;35.51;102386.88;5014464;28;20079;-71
2021/10/06 06:40:01;;;;;;;1.00;1.00;;;;;;;16.24;35.64;102396.81;5032830;28;20516;-72
2021/10/06 06:42:27;;;;;;;1.10;1.10;;;;;;;16.67;35.02;102375.09;5030937;28;20062;-72
2021/10/06 06:44:52;;;;;;;1.10;1.10;;;;;;;17.66;33.32;102379.69;5031133;28;20053;-71
2021/10/06 06:47:18;;;;;;;1.10;1.10;;;;;;;17.91;32.47;102385.81;5014239;28;20560;-73
2021/10/06 06:49:44;;;;;;;1.08;1.08;;;;;;;18.06;32.53;102382.63;5030958;28;20077;-72
2021/10/06 06:52:10;;;;;;;1.00;1.00;;;;;;;18.92;30.87;102383.25;4997973;28;20616;-72
2021/10/06 06:54:36;;;;;;;1.00;1.00;;;;;;;18.48;31.29;102379.88;5014596;28;20141;-72
2021/10/06 06:57:02;;;;;;;1.00;1.00;;;;;;;18.74;30.88;102379.44;4998483;28;20060;-73
2021/10/06 06:59:28;;;;;;;1.00;1.00;;;;;;;18.99;31.49;102378.97;5015219;28;20053;-73
2021/10/06 07:01:56;;;;;;;1.00;1.00;;;;;;;19.58;30.02;102374.47;5015738;28;20056;-73
2021/10/06 07:04:22;;;;;;;1.00;1.00;;;;;;;20.05;29.40;102371.00;5015172;28;20060;-72
2021/10/06 07:06:48;;;;;;;1.00;1.00;;;;;;;19.54;29.55;102377.63;4997904;28;20101;-72
2021/10/06 07:09:14;;;;;;;1.00;1.00;;;;;;;19.14;29.85;102382.19;5030462;28;20049;-72
2021/10/06 07:11:39;;;;;;;1.02;1.02;;;;;;;19.58;29.71;102381.81;5014284;28;20067;-71
2021/10/06 07:14:05;;;;;;;1.00;1.00;;;;;;;20.30;28.63;102381.38;5014342;28;20127;-72
2021/10/06 07:16:31;;;;;;;1.10;1.10;;;;;;;18.62;30.51;102381.38;5013883;28;20057;-71
2021/10/06 07:18:57;;;;;;;1.10;1.10;;;;;;;18.43;31.31;102378.53;5014014;28;20100;-70
2021/10/06 07:21:23;;;;;;;1.10;1.10;;;;;;;17.51;32.38;102379.09;4997440;28;20568;-72
2021/10/06 07:23:49;;;;;;;1.10;1.10;;;;;;;18.02;31.66;102383.88;5013997;28;20132;-72
2021/10/06 07:26:16;;;;;;;1.17;1.17;;;;;;;17.58;32.66;102379.44;5014049;28;20107;-72
2021/10/06 07:28:43;;;;;;;1.10;1.10;;;;;;;18.10;32.02;102379.59;5014459;28;20049;-72
2021/10/06 07:31:08;;;;;;;1.20;1.20;;;;;;;17.95;31.99;102382.72;4982271;28;20061;-72
2021/10/06 07:33:34;;;;;;;1.20;1.20;;;;;;;17.07;33.12;102372.75;5015638;28;20071;-76
2021/10/06 07:36:00;;;;;;;1.20;1.20;;;;;;;17.42;33.06;102381.75;4998699;28;20053;-72
2021/10/06 07:38:26;;;;;;;1.20;1.20;;;;;;;18.94;31.80;102381.25;5016742;28;20063;-73
2021/10/06 07:40:52;;;;;;;1.10;1.10;;;;;;;19.05;30.48;102374.81;4998396;28;20084;-71
2021/10/06 07:43:18;;;;;;;1.10;1.10;;;;;;;18.79;30.60;102377.16;5031351;28;20146;-71
2021/10/06 07:45:44;;;;;;;1.20;1.20;;;;;;;18.58;30.71;102381.81;5013627;28;20053;-72
2021/10/06 07:48:10;;;;;;;1.20;1.20;;;;;;;19.24;30.36;102379.47;4997662;28;20080;-72
2021/10/06 07:50:36;;;;;;;1.15;1.15;;;;;;;20.45;27.82;102390.88;4996667;28;20057;-72
2021/10/06 07:53:02;;;;;;;1.10;1.10;;;;;;;20.37;28.27;102388.03;4997070;28;20408;-73
2021/10/06 07:55:28;;;;;;;1.17;1.17;;;;;;;20.45;28.83;102382.63;5029699;28;20049;-71
2021/10/06 07:57:54;;;;;;;1.10;1.10;;;;;;;19.76;29.19;102380.13;5013607;28;20091;-72
2021/10/06 08:00:20;;;;;;;1.17;1.17;;;;;;;20.23;28.58;102381.09;5013384;28;20076;-72
2021/10/06 08:02:46;;;;;;;1.10;1.10;;;;;;;21.19;27.35;102376.25;5013607;28;20105;-73
2021/10/06 08:05:12;;;;;;;1.10;1.10;;;;;;;20.25;28.21;102386.44;4997177;28;20056;-72
2021/10/06 08:07:39;;;;;;;1.10;1.10;;;;;;;22.53;25.74;102371.66;5029933;28;20057;-72
2021/10/06 08:10:05;;;;;;;1.10;1.10;;;;;;;21.22;27.45;102377.84;4996858;28;20049;-72
2021/10/06 08:12:31;;;;;;;1.10;1.10;;;;;;;20.20;28.35;102381.38;5013451;28;20080;-72
2021/10/06 08:14:57;;;;;;;1.10;1.10;;;;;;;18.61;30.47;102378.75;4997237;28;20068;-72
2021/10/06 08:17:24;;;;;;;1.20;1.20;;;;;;;19.15;30.09;102388.53;4981526;28;20049;-72
2021/10/06 08:19:50;;;;;;;1.13;1.13;;;;;;;20.54;27.79;102393.78;4981257;28;20061;-72
2021/10/06 08:22:17;;;;;;;1.10;1.10;;;;;;;21.63;26.63;102387.44;5013558;28;20136;-72
2021/10/06 08:24:43;;;;;;;1.20;1.20;;;;;;;22.17;26.17;102390.19;5031073;28;20057;-72
2021/10/06 08:27:11;;;;;;;1.10;1.10;;;;;;;22.20;25.50;102391.75;4996788;28;20053;-72
2021/10/06 08:29:37;;;;;;;1.10;1.10;;;;;;;22.45;25.97;102387.25;5013907;28;20061;-73
2021/10/06 08:32:03;;;;;;;1.00;1.00;;;;;;;22.92;24.85;102379.44;4980797;28;20054;-71
2021/10/06 08:34:29;;;;;;;1.00;1.00;;;;;;;23.11;24.41;102383.88;4996540;28;20152;-71
2021/10/06 08:36:55;;;;;;;1.00;1.00;;;;;;;23.61;24.60;102380.19;5013143;28;20077;-74
2021/10/06 08:39:21;;;;;;;1.05;1.05;;;;;;;23.35;24.24;102378.41;5013255;28;20159;-72
2021/10/06 08:41:47;;;;;;;1.00;1.00;;;;;;;24.43;23.83;102381.09;5013120;28;20144;-72
2021/10/06 08:44:14;;;;;;;1.00;1.00;;;;;;;23.55;24.00;102375.34;4996498;28;20049;-72
2021/10/06 08:46:40;;;;;;;1.00;1.00;;;;;;;24.54;23.37;102375.22;5012674;28;20433;-73
2021/10/06 08:49:06;;;;;;;1.00;1.00;;;;;;;25.56;21.77;102368.84;5012661;28;20080;-72
2021/10/06 08:51:32;;;;;;;0.90;0.90;;;;;;;25.00;22.52;102371.75;5012941;28;20061;-72
2021/10/06 08:53:57;;;;;;;0.90;0.90;;;;;;;23.86;23.21;102367.28;5030591;28;20056;-72
2021/10/06 08:56:25;;;;;;;0.90;0.90;;;;;;;23.24;24.22;102375.97;4996539;28;20155;-71
2021/10/06 08:58:51;;;;;;;0.90;0.90;;;;;;;24.68;22.48;102367.19;5013481;28;20049;-71
2021/10/06 09:01:25;;;;;;;0.90;0.90;;;;;;;23.98;22.79;102374.19;5015623;28;20057;-72
2021/10/06 09:04:00;;;;;;;0.90;0.90;;;;;;;23.90;23.32;102356.75;5034929;28;20049;-72
2021/10/06 09:06:33;;;;;;;0.90;0.90;;;;;;;23.14;24.89;102350.38;5017202;28;20109;-72
2021/10/06 09:09:14;;;;;;;0.90;0.90;;;;;;;25.17;22.32;102356.81;5017008;28;20052;-72
2021/10/06 09:11:40;;;;;;;0.90;0.90;;;;;;;24.26;22.69;102362.78;5034609;28;20195;-72
2021/10/06 09:14:08;;;;;;;0.85;0.85;;;;;;;24.12;22.49;102367.09;5034594;28;20049;-72
2021/10/06 09:16:35;;;;;;;0.90;0.90;;;;;;;25.74;21.57;102355.56;5016678;28;20180;-73
2021/10/06 09:19:01;;;;;;;0.90;0.90;;;;;;;25.85;21.18;102370.94;5017005;28;20057;-72
2021/10/06 09:21:26;;;;;;;0.90;0.90;;;;;;;25.40;21.66;102356.00;5017055;28;20041;-72
2021/10/06 09:23:54;;;;;;;0.80;0.80;;;;;;;23.73;23.62;102340.19;5035440;28;20068;-72
2021/10/06 09:26:20;;;;;;;0.90;0.90;;;;;;;24.61;22.67;102356.00;5000675;28;20057;-70
2021/10/06 09:28:47;;;;;;;0.90;0.90;;;;;;;25.88;21.46;102352.00;5016679;28;20093;-72
2021/10/06 09:31:24;;;;;;;0.80;0.80;;;;;;;23.64;23.28;102357.75;5016469;28;20057;-73
2021/10/06 09:33:59;;;;;;;0.90;0.90;;;;;;;24.86;22.33;102348.44;5016616;28;20248;-72
2021/10/06 09:36:35;;;;;;;0.80;0.80;;;;;;;25.33;21.04;102350.31;5016441;28;20057;-72
2021/10/06 09:39:09;;;;;;;0.80;0.80;;;;;;;25.63;20.86;102348.56;5000850;28;20049;-72
2021/10/06 09:41:37;;;;;;;0.80;0.80;;;;;;;26.20;20.25;102347.22;4999713;28;20056;-72
2021/10/06 09:44:06;;;;;;;0.80;0.80;;;;;;;25.43;21.24;102339.00;5016241;28;20041;-72
2021/10/06 09:46:55;;;;;;;0.80;0.80;;;;;;;25.96;20.79;102342.75;5015701;28;20417;-73
2021/10/06 09:49:25;;;;;;;0.75;0.75;;;;;;;26.07;20.23;102353.44;5032871;28;20124;-73
2021/10/06 09:51:52;;;;;;;0.70;0.70;;;;;;;25.20;21.08;102348.16;4983740;28;20053;-72
2021/10/06 09:54:19;;;;;;;0.70;0.70;;;;;;;26.36;19.98;102335.97;5016440;28;20060;-72
2021/10/06 09:56:47;;;;;;;0.70;0.70;;;;;;;26.17;20.24;102331.81;5034212;28;20052;-73
2021/10/06 09:59:14;;;;;;;0.70;0.70;;;;;;;24.68;21.39;102342.28;5034349;28;20072;-72
2021/10/06 10:01:44;;;;;;;0.80;0.80;;;;;;;23.66;22.62;102344.66;5000315;28;20088;-72
2021/10/06 10:04:11;;;;;;;0.70;0.70;;;;;;;24.52;21.72;102330.25;5001364;28;20057;-73
2021/10/06 10:06:38;;;;;;;0.70;0.70;;;;;;;25.10;21.00;102322.59;5017925;28;20133;-72
2021/10/06 10:09:07;;;;;;;0.70;0.70;;;;;;;25.86;20.86;102328.31;4986198;28;20492;-73
2021/10/06 10:11:35;;;;;;;0.60;0.60;;;;;;;26.57;19.57;102332.47;5001445;28;20484;-72
2021/10/06 10:14:05;;;;;;;0.70;0.70;;;;;;;25.92;20.38;102327.56;5017141;28;20132;-72
2021/10/06 10:16:32;;;;;;;0.60;0.60;;;;;;;25.52;20.93;102321.28;5018068;28;20119;-73
2021/10/06 10:19:07;;;;;;;0.70;0.70;;;;;;;25.33;21.31;102327.31;5001584;28;20056;-74
2021/10/06 10:21:34;;;;;;;0.70;0.70;;;;;;;25.96;20.82;102326.13;5035495;28;20081;-73
2021/10/06 10:24:10;;;;;;;0.70;0.70;;;;;;;26.23;20.07;102318.25;5018001;28;20139;-73
2021/10/06 10:26:36;;;;;;;0.70;0.70;;;;;;;25.95;20.01;102313.31;5034759;28;20053;-73
2021/10/06 10:29:38;;;;;;;0.60;0.60;;;;;;;26.14;19.79;102304.50;4969515;28;20081;-73
2021/10/06 10:32:09;;;;;;;0.70;0.70;;;;;;;25.45;20.34;102320.31;5018461;28;20071;-74
2021/10/06 10:34:56;;;;;;;0.70;0.70;;;;;;;23.83;22.38;102309.59;5018810;28;20047;-74
2021/10/06 10:37:47;;;;;;;0.60;0.60;;;;;;;25.09;21.26;102304.25;5034968;28;20148;-73
2021/10/06 10:40:34;;;;;;;0.70;0.70;;;;;;;25.60;20.68;102304.59;5034912;28;20080;-72
2021/10/06 10:43:07;;;;;;;0.65;0.65;;;;;;;25.33;20.68;102305.16;5035167;28;20057;-74
2021/10/06 10:45:56;;;;;;;0.60;0.60;;;;;;;25.23;21.21;102297.97;5034238;28;20050;-73
2021/10/06 10:49:01;;;;;;;0.60;0.60;;;;;;;23.90;21.73;102298.72;5036570;28;20068;-77
2021/10/06 10:51:43;;;;;;;0.60;0.60;;;;;;;24.94;21.31;102303.28;5017565;28;20512;-74
2021/10/06 10:54:10;;;;;;;0.68;0.68;;;;;;;25.17;20.83;102301.44;5015116;28;20053;-72
2021/10/06 10:56:44;;;;;;;0.60;0.60;;;;;;;25.65;20.79;102301.28;5014606;28;20075;-72
2021/10/06 10:59:23;;;;;;;0.60;0.60;;;;;;;26.21;19.90;102288.78;5015086;28;20049;-72
2021/10/06 11:01:57;;;;;;;0.60;0.60;;;;;;;25.57;20.34;102291.13;5032192;28;20522;-72
2021/10/06 11:04:29;;;;;;;0.50;0.50;;;;;;;24.78;21.35;102280.16;5032414;28;20049;-72
2021/10/06 11:07:18;;;;;;;0.60;0.60;;;;;;;24.71;21.45;102281.94;4998408;28;20057;-72
2021/10/06 11:09:46;;;;;;;0.60;0.60;;;;;;;24.15;21.90;102294.03;5014595;28;20057;-72
2021/10/06 11:12:12;;;;;;;0.60;0.60;;;;;;;25.06;21.73;102276.91;4997979;28;20053;-72
2021/10/06 11:14:40;;;;;;;0.50;0.50;;;;;;;25.89;21.03;102283.59;5013997;28;20084;-72
2021/10/06 11:17:12;;;;;;;0.50;0.50;;;;;;;25.30;20.50;102284.22;5014292;28;20060;-72
2021/10/06 11:19:43;;;;;;;0.60;0.60;;;;;;;25.15;21.44;102286.91;5031770;28;20055;-71
2021/10/06 11:22:24;;;;;;;0.50;0.50;;;;;;;23.37;22.57;102278.88;5030593;28;20140;-72
2021/10/06 11:24:55;;;;;;;0.60;0.60;;;;;;;23.46;22.94;102293.53;5030492;28;20059;-72
2021/10/06 11:27:22;;;;;;;0.60;0.60;;;;;;;23.24;23.67;102273.81;5030253;28;20366;-72
2021/10/06 11:29:49;;;;;;;0.52;0.52;;;;;;;24.09;22.32;102281.75;5014020;28;20068;-72